Time;durP1;ratioP1;P1;durP2;ratioP2;P2;SDS_P1;SDS_P2;PMS_P1;PMS_P2;Temp;Humidity;BMP_temperature;BMP_pressure;BME280_temperature;BME280_humidity;BME280_pressure;Samples;Min_cycle;Max_cycle;Signal;HPM_P1;HPM_P2
2022/07/02 00:00:54;;;;;;;7.55;0.30;;;14.30;99.90;;;;;;5094710;28;20020;-73
2022/07/02 00:03:42;;;;;;;1.85;0.30;;;13.90;99.90;;;;;;5094859;28;20077;-73
2022/07/02 00:06:09;;;;;;;2.15;0.03;;;13.80;99.90;;;;;;5094804;28;20077;-73
2022/07/02 00:08:34;;;;;;;2.38;0.17;;;13.80;99.90;;;;;;5094621;28;20024;-73
2022/07/02 00:11:03;;;;;;;3.42;0.10;;;13.70;99.90;;;;;;5094867;28;20145;-73
2022/07/02 00:13:28;;;;;;;4.40;0.95;;;13.70;99.90;;;;;;5094833;28;20453;-73
2022/07/02 00:15:54;;;;;;;6.85;0.40;;;13.70;99.90;;;;;;5076732;28;20023;-73
2022/07/02 00:18:21;;;;;;;2.55;0.20;;;13.60;99.90;;;;;;5094463;28;20028;-73
2022/07/02 00:20:47;;;;;;;4.70;0.25;;;13.60;99.90;;;;;;5094446;28;20032;-73
2022/07/02 00:23:12;;;;;;;3.30;0.28;;;13.50;99.90;;;;;;5094334;28;20082;-73
2022/07/02 00:25:43;;;;;;;3.45;0.32;;;13.50;99.90;;;;;;5094409;28;20032;-73
2022/07/02 00:28:15;;;;;;;3.75;0.45;;;13.40;99.90;;;;;;5094194;28;20370;-73
2022/07/02 00:30:44;;;;;;;6.82;1.00;;;13.30;99.90;;;;;;5076067;28;20032;-73
2022/07/02 00:33:13;;;;;;;6.00;0.52;;;13.30;99.90;;;;;;5094388;28;20027;-73
2022/07/02 00:35:40;;;;;;;2.83;0.60;;;13.20;99.90;;;;;;5094324;28;20468;-73
2022/07/02 00:38:06;;;;;;;2.53;0.20;;;13.20;99.90;;;;;;5094137;28;20102;-73
2022/07/02 00:40:32;;;;;;;1.73;0.50;;;13.20;99.90;;;;;;5094653;28;20025;-73
2022/07/02 00:42:58;;;;;;;2.05;0.10;;;13.20;99.90;;;;;;5094548;28;20032;-73
2022/07/02 00:45:25;;;;;;;3.08;0.45;;;13.10;99.90;;;;;;5075812;28;20028;-73
2022/07/02 00:47:52;;;;;;;2.28;0.30;;;13.10;99.90;;;;;;5093900;28;20027;-73
2022/07/02 00:50:17;;;;;;;4.60;0.75;;;13.10;99.90;;;;;;5075817;28;20028;-73
2022/07/02 00:52:43;;;;;;;4.70;0.38;;;13.00;99.90;;;;;;5074850;28;20020;-73
2022/07/02 00:55:09;;;;;;;6.00;0.52;;;13.10;99.90;;;;;;5075785;28;20031;-73
2022/07/02 00:57:35;;;;;;;2.65;0.73;;;13.00;99.90;;;;;;5093585;28;20024;-73
2022/07/02 01:00:00;;;;;;;2.20;0.57;;;13.00;99.90;;;;;;5093633;28;20093;-73
2022/07/02 01:02:27;;;;;;;5.25;0.85;;;13.00;99.90;;;;;;5093737;28;20036;-73
2022/07/02 01:04:55;;;;;;;3.85;0.93;;;13.00;99.90;;;;;;5093570;28;20048;-73
2022/07/02 01:07:21;;;;;;;5.23;1.00;;;13.00;99.90;;;;;;5075410;28;20413;-73
2022/07/02 01:12:33;;;;;;;2.80;1.15;;;13.00;99.90;;;;;;5094505;28;20071;-73
2022/07/02 01:14:59;;;;;;;3.97;1.70;;;12.90;99.90;;;;;;5093489;28;20032;-73
2022/07/02 01:17:25;;;;;;;2.88;1.58;;;12.90;99.90;;;;;;5093415;28;20373;-73
2022/07/02 01:19:51;;;;;;;6.43;2.25;;;12.90;99.90;;;;;;5075281;28;20491;-76
2022/07/02 01:22:44;;;;;;;4.45;2.00;;;12.90;99.90;;;;;;5093426;28;20024;-75
2022/07/02 01:25:10;;;;;;;3.70;1.70;;;12.90;99.90;;;;;;5072552;28;20115;-74
2022/07/02 01:27:35;;;;;;;5.90;1.98;;;12.90;99.90;;;;;;5075218;28;20056;-74
2022/07/02 01:30:02;;;;;;;6.15;2.10;;;12.90;99.90;;;;;;5093304;28;20026;-74
2022/07/02 01:32:28;;;;;;;3.70;1.80;;;12.90;99.90;;;;;;5075105;28;20020;-74
2022/07/02 01:35:01;;;;;;;4.63;1.50;;;12.90;99.90;;;;;;5093623;28;20027;-74
2022/07/02 01:37:27;;;;;;;6.90;2.03;;;12.90;99.90;;;;;;5075275;28;20024;-74
2022/07/02 01:39:53;;;;;;;6.57;1.77;;;13.50;99.90;;;;;;5093322;28;20020;-74
2022/07/02 01:42:18;;;;;;;4.82;2.33;;;12.80;99.90;;;;;;5093321;28;20062;-74
2022/07/02 01:44:45;;;;;;;4.03;1.42;;;12.80;99.90;;;;;;5093286;28;20031;-75
2022/07/02 01:47:12;;;;;;;6.18;2.08;;;12.80;99.90;;;;;;5093749;28;20020;-77
2022/07/02 01:49:38;;;;;;;7.70;1.88;;;12.80;99.90;;;;;;5075219;28;20048;-77
2022/07/02 01:52:05;;;;;;;7.00;2.10;;;12.70;99.90;;;;;;5075189;28;20051;-77
2022/07/02 01:54:32;;;;;;;6.03;2.20;;;12.70;99.90;;;;;;5093463;28;20077;-76
2022/07/02 01:56:59;;;;;;;6.95;2.92;;;12.70;99.90;;;;;;5075109;28;20016;-76
2022/07/02 01:59:25;;;;;;;8.63;1.77;;;12.80;99.90;;;;;;5093098;28;20103;-76
2022/07/02 02:01:50;;;;;;;4.45;2.10;;;12.70;99.90;;;;;;5093171;28;20497;-76
2022/07/02 02:04:16;;;;;;;4.97;1.77;;;12.80;99.90;;;;;;5094417;28;20546;-76
2022/07/02 02:06:42;;;;;;;4.35;1.27;;;12.80;99.90;;;;;;5097396;28;20343;-76
2022/07/02 02:09:08;;;;;;;5.13;1.27;;;12.80;99.90;;;;;;5097069;28;20028;-76
2022/07/02 02:11:34;;;;;;;5.95;0.93;;;12.80;99.90;;;;;;5097046;28;20101;-76
2022/07/02 02:14:00;;;;;;;2.22;1.00;;;12.80;99.90;;;;;;5097235;28;20024;-76
2022/07/02 02:16:26;;;;;;;2.28;1.40;;;12.70;99.90;;;;;;5096958;28;20020;-76
2022/07/02 02:18:53;;;;;;;4.25;1.25;;;12.70;99.90;;;;;;5096905;28;20500;-76
2022/07/02 02:21:19;;;;;;;3.97;1.55;;;12.70;99.90;;;;;;5097194;28;20031;-76
2022/07/02 02:23:45;;;;;;;4.18;1.45;;;12.70;99.90;;;;;;5078656;28;20020;-76
2022/07/02 02:26:10;;;;;;;4.78;2.17;;;12.70;99.90;;;;;;5097123;28;20020;-76
2022/07/02 02:28:36;;;;;;;3.83;1.42;;;12.70;99.90;;;;;;5096892;28;20124;-76
2022/07/02 02:31:02;;;;;;;3.15;1.10;;;12.70;99.90;;;;;;5096727;28;20040;-76
2022/07/02 02:33:27;;;;;;;4.97;0.75;;;12.60;99.90;;;;;;5078445;28;20016;-76
2022/07/02 02:35:53;;;;;;;5.93;1.27;;;12.60;99.90;;;;;;5096587;28;20592;-76
2022/07/02 02:38:19;;;;;;;5.38;1.65;;;12.60;99.90;;;;;;5096634;28;20025;-76
2022/07/02 02:40:44;;;;;;;3.65;0.45;;;12.60;99.90;;;;;;5096979;28;20052;-76
2022/07/02 02:43:10;;;;;;;2.08;0.70;;;12.70;99.90;;;;;;5078326;28;20388;-76
2022/07/02 02:45:36;;;;;;;4.15;1.15;;;12.70;99.90;;;;;;5096880;28;20053;-76
2022/07/02 02:48:01;;;;;;;1.80;0.20;;;12.90;99.90;;;;;;5078196;28;20031;-75
2022/07/02 02:50:27;;;;;;;3.75;0.20;;;12.70;99.90;;;;;;5096401;28;20024;-76
2022/07/02 02:52:53;;;;;;;1.65;0.40;;;12.70;99.90;;;;;;5078344;28;20031;-76
2022/07/02 02:55:18;;;;;;;6.15;0.32;;;12.70;99.90;;;;;;5096267;28;20020;-76
2022/07/02 02:57:44;;;;;;;4.20;0.20;;;12.70;99.90;;;;;;5078499;28;20057;-76
2022/07/02 03:00:10;;;;;;;1.23;0.22;;;12.70;99.90;;;;;;5077887;28;20028;-76
2022/07/02 03:02:36;;;;;;;3.65;0.45;;;12.70;99.90;;;;;;5096132;28;20039;-76
2022/07/02 03:05:01;;;;;;;2.38;0.45;;;12.60;99.90;;;;;;5096467;28;20020;-76
2022/07/02 03:07:27;;;;;;;2.22;0.55;;;12.60;99.90;;;;;;5095907;28;20032;-76
2022/07/02 03:09:52;;;;;;;2.13;0.40;;;12.60;99.90;;;;;;5095814;28;20024;-76
2022/07/02 03:12:21;;;;;;;1.60;0.10;;;12.70;99.90;;;;;;5077778;28;20099;-76
2022/07/02 03:14:46;;;;;;;2.85;0.32;;;12.60;99.90;;;;;;5096147;28;20480;-76
2022/07/02 03:17:12;;;;;;;3.53;0.00;;;12.60;99.90;;;;;;5095272;28;20039;-76
2022/07/02 03:19:37;;;;;;;0.10;0.03;;;12.60;99.90;;;;;;5095760;28;20468;-76
2022/07/02 03:22:03;;;;;;;3.50;0.68;;;12.60;99.90;;;;;;5095673;28;20077;-76
2022/07/02 03:24:29;;;;;;;2.05;0.08;;;12.60;99.90;;;;;;5096020;28;20126;-76
2022/07/02 03:26:54;;;;;;;0.35;0.00;;;12.60;99.90;;;;;;5095919;28;20031;-76
2022/07/02 03:29:20;;;;;;;3.13;0.68;;;12.60;99.90;;;;;;5077390;28;20405;-76
2022/07/02 03:31:45;;;;;;;1.48;0.28;;;12.60;99.90;;;;;;5095589;28;20070;-76
2022/07/02 03:34:11;;;;;;;1.65;0.20;;;12.60;99.90;;;;;;5095509;28;20027;-77
2022/07/02 03:36:36;;;;;;;1.58;0.10;;;12.50;99.90;;;;;;5095856;28;20476;-77
2022/07/02 03:39:02;;;;;;;0.73;0.10;;;12.50;99.90;;;;;;5077296;28;20044;-77
2022/07/02 03:41:28;;;;;;;2.03;0.30;;;12.40;99.90;;;;;;5077215;28;20024;-76
2022/07/02 03:43:53;;;;;;;2.00;0.20;;;12.40;99.90;;;;;;5095426;28;20473;-76
2022/07/02 03:46:19;;;;;;;2.97;0.40;;;12.30;99.90;;;;;;5095169;28;20054;-76
2022/07/02 03:48:44;;;;;;;0.30;0.20;;;12.30;99.90;;;;;;5077048;28;20388;-76
2022/07/02 03:51:10;;;;;;;1.88;0.40;;;12.30;99.90;;;;;;5095429;28;20024;-76
2022/07/02 03:53:36;;;;;;;0.90;0.20;;;13.90;99.90;;;;;;5095312;28;20084;-76
2022/07/02 03:56:02;;;;;;;1.17;0.30;;;12.20;99.90;;;;;;5095153;28;20031;-76
2022/07/02 03:58:28;;;;;;;1.98;0.70;;;12.20;99.90;;;;;;5095105;28;20024;-76
2022/07/02 04:00:53;;;;;;;2.70;0.75;;;12.20;99.90;;;;;;5076701;28;20039;-76
2022/07/02 04:03:19;;;;;;;2.35;0.32;;;12.20;99.90;;;;;;5094991;28;20032;-76
2022/07/02 04:05:45;;;;;;;5.22;0.40;;;12.20;99.90;;;;;;5094952;28;20058;-76
2022/07/02 04:08:10;;;;;;;4.82;0.60;;;12.20;99.90;;;;;;5094820;28;20031;-77
2022/07/02 04:10:36;;;;;;;3.45;0.40;;;12.30;99.90;;;;;;5076829;28;20567;-77
2022/07/02 04:13:01;;;;;;;2.00;0.40;;;12.40;99.90;;;;;;5094781;28;20026;-77
2022/07/02 04:15:27;;;;;;;2.97;0.35;;;12.50;99.90;;;;;;5076541;28;20115;-77
2022/07/02 04:17:53;;;;;;;4.47;0.98;;;12.50;99.90;;;;;;5094577;28;20534;-77
2022/07/02 04:20:18;;;;;;;1.58;0.32;;;12.60;99.90;;;;;;5094744;28;20046;-77
2022/07/02 04:22:44;;;;;;;3.08;0.10;;;12.70;99.90;;;;;;5094578;28;20039;-76
2022/07/02 04:25:10;;;;;;;1.58;0.20;;;13.30;99.90;;;;;;5094538;28;20031;-76
2022/07/02 04:27:35;;;;;;;1.77;0.10;;;13.00;99.90;;;;;;5076238;28;20027;-77
2022/07/02 04:30:01;;;;;;;2.22;0.17;;;13.10;99.90;;;;;;5094491;28;20032;-76
2022/07/02 04:32:26;;;;;;;1.35;0.00;;;13.20;99.90;;;;;;5094819;28;20032;-76
2022/07/02 04:34:52;;;;;;;2.10;0.50;;;13.30;99.90;;;;;;5094716;28;20032;-76
2022/07/02 04:37:17;;;;;;;3.42;0.75;;;13.50;99.90;;;;;;5076061;28;20385;-76
2022/07/02 04:39:43;;;;;;;1.98;0.10;;;13.50;99.90;;;;;;5076084;28;20431;-76
2022/07/02 04:42:09;;;;;;;1.38;0.30;;;13.60;99.90;;;;;;5094411;28;20024;-76
2022/07/02 04:44:34;;;;;;;1.83;0.00;;;13.80;99.90;;;;;;5075962;28;20491;-78
2022/07/02 04:47:00;;;;;;;5.80;0.30;;;13.80;99.90;;;;;;5094061;28;20076;-76
2022/07/02 04:49:25;;;;;;;4.55;0.47;;;13.90;99.90;;;;;;5094318;28;20107;-77
2022/07/02 04:51:51;;;;;;;4.10;0.57;;;14.10;99.90;;;;;;5075815;28;20016;-77
2022/07/02 04:54:17;;;;;;;2.03;0.00;;;14.20;99.90;;;;;;5094023;28;20035;-77
2022/07/02 04:56:42;;;;;;;2.20;0.25;;;14.30;99.90;;;;;;5094528;28;20030;-77
2022/07/02 04:59:08;;;;;;;1.20;0.10;;;14.40;99.90;;;;;;5093869;28;20027;-77
2022/07/02 05:01:33;;;;;;;2.80;0.20;;;14.50;99.90;;;;;;5093708;28;20036;-76
2022/07/02 05:03:59;;;;;;;3.55;0.22;;;14.50;99.90;;;;;;5093776;28;20045;-76
2022/07/02 05:06:24;;;;;;;4.15;0.22;;;14.60;99.90;;;;;;5094091;28;20030;-76
2022/07/02 05:08:51;;;;;;;2.13;0.00;;;14.70;99.90;;;;;;5093647;28;20095;-76
2022/07/02 05:11:19;;;;;;;4.28;0.00;;;15.10;99.90;;;;;;5093897;28;20058;-76
2022/07/02 05:13:46;;;;;;;1.75;0.20;;;15.00;99.90;;;;;;5093951;28;20036;-76
2022/07/02 05:16:12;;;;;;;1.77;0.28;;;15.00;99.90;;;;;;5093998;28;20016;-76
2022/07/02 05:18:38;;;;;;;1.98;0.00;;;15.30;99.90;;;;;;5075479;28;20027;-76
2022/07/02 05:21:04;;;;;;;0.75;0.00;;;15.10;99.90;;;;;;5075721;28;20035;-77
2022/07/02 05:23:29;;;;;;;1.85;0.00;;;15.20;99.90;;;;;;5093928;28;20028;-77
2022/07/02 05:25:56;;;;;;;1.42;0.00;;;15.40;99.90;;;;;;5075339;28;20034;-76
2022/07/02 05:28:23;;;;;;;0.88;0.03;;;15.40;99.90;;;;;;5075330;28;20389;-76
2022/07/02 05:30:49;;;;;;;0.90;0.00;;;15.60;99.90;;;;;;5075426;28;20027;-76
2022/07/02 05:33:15;;;;;;;3.40;0.10;;;15.60;99.90;;;;;;5093641;28;20028;-76
2022/07/02 05:35:40;;;;;;;4.75;0.10;;;15.60;99.90;;;;;;5093898;28;20016;-76
2022/07/02 05:38:06;;;;;;;0.95;0.00;;;15.70;99.90;;;;;;5075555;28;20469;-76
2022/07/02 05:40:32;;;;;;;2.15;0.20;;;15.70;99.90;;;;;;5081207;28;20069;-76
2022/07/02 05:42:58;;;;;;;2.97;0.00;;;15.80;99.90;;;;;;5082074;28;20027;-76
2022/07/02 05:45:23;;;;;;;2.38;0.20;;;15.90;99.90;;;;;;5100096;28;20077;-76
2022/07/02 05:47:49;;;;;;;1.48;0.17;;;15.90;99.90;;;;;;5100285;28;20027;-76
2022/07/02 05:50:14;;;;;;;0.32;0.00;;;16.50;99.90;;;;;;5099929;28;20115;-76
2022/07/02 05:52:40;;;;;;;3.33;0.20;;;16.70;99.90;;;;;;5081947;28;20484;-76
2022/07/02 05:55:06;;;;;;;1.60;0.00;;;16.20;99.90;;;;;;5099978;28;20028;-76
2022/07/02 05:57:31;;;;;;;3.72;0.00;;;16.20;99.90;;;;;;5081814;28;20044;-76
2022/07/02 05:59:57;;;;;;;0.55;0.15;;;16.20;99.90;;;;;;5081786;28;20130;-76
2022/07/02 06:02:23;;;;;;;1.15;0.10;;;16.60;99.90;;;;;;5082398;28;20013;-77
2022/07/02 06:04:49;;;;;;;1.63;0.00;;;16.80;99.90;;;;;;5099853;28;20027;-77
2022/07/02 06:09:58;;;;;;;0.75;0.00;;;16.60;99.90;;;;;;5100803;28;20035;-77
2022/07/02 06:12:24;;;;;;;0.30;0.00;;;16.60;99.90;;;;;;5100288;28;20024;-77
2022/07/02 06:14:50;;;;;;;4.20;0.10;;;16.70;99.90;;;;;;5081816;28;20034;-77
2022/07/02 06:17:15;;;;;;;1.58;0.00;;;16.80;99.90;;;;;;5100315;28;20050;-77
2022/07/02 06:19:42;;;;;;;2.33;0.13;;;16.80;99.90;;;;;;5100248;28;20070;-77
2022/07/02 06:22:08;;;;;;;0.65;0.00;;;16.90;99.90;;;;;;5100101;28;20035;-77
2022/07/02 06:24:34;;;;;;;3.92;0.00;;;17.00;99.90;;;;;;5099941;28;20430;-77
2022/07/02 06:26:59;;;;;;;0.55;0.00;;;17.10;99.90;;;;;;5100184;28;20077;-77
2022/07/02 06:29:25;;;;;;;1.27;0.00;;;17.20;99.90;;;;;;5100047;28;20369;-78
2022/07/02 06:31:51;;;;;;;4.03;0.20;;;17.30;99.90;;;;;;5081670;28;20465;-77
2022/07/02 06:34:16;;;;;;;1.83;0.10;;;17.30;99.90;;;;;;5099995;28;20066;-77
2022/07/02 06:36:42;;;;;;;1.65;0.00;;;17.50;99.90;;;;;;5099752;28;20481;-77
2022/07/02 06:39:07;;;;;;;0.93;0.08;;;18.00;99.90;;;;;;5099997;28;20473;-77
2022/07/02 06:44:17;;;;;;;0.50;0.00;;;17.60;99.90;;;;;;5099928;28;20043;-77
2022/07/02 06:46:42;;;;;;;1.55;0.20;;;17.80;99.90;;;;;;5100332;28;20032;-77
2022/07/02 06:49:08;;;;;;;1.23;0.10;;;17.90;99.90;;;;;;5099748;28;20412;-77
2022/07/02 06:51:33;;;;;;;1.08;0.10;;;17.90;99.90;;;;;;5098000;28;20032;-78
2022/07/02 06:54:02;;;;;;;1.85;0.00;;;18.00;99.90;;;;;;5082363;28;20446;-78
2022/07/02 06:56:28;;;;;;;1.80;0.00;;;18.10;99.90;;;;;;5100161;28;20016;-79
2022/07/02 06:58:55;;;;;;;2.58;0.35;;;18.20;99.90;;;;;;5082985;28;20020;-79
2022/07/02 07:01:20;;;;;;;1.98;0.00;;;19.40;99.90;;;;;;5114959;22;20403;-79
2022/07/02 07:03:46;;;;;;;0.98;0.00;;;18.40;99.90;;;;;;5109765;28;20059;-78
2022/07/02 07:06:11;;;;;;;0.00;0.00;;;18.40;99.90;;;;;;5092414;28;20027;-78
2022/07/02 07:08:37;;;;;;;0.47;0.00;;;18.50;99.90;;;;;;5109123;28;20016;-78
2022/07/02 07:11:03;;;;;;;1.02;0.00;;;18.50;99.90;;;;;;5110207;28;20043;-78
2022/07/02 07:13:28;;;;;;;0.30;0.00;;;18.60;99.90;;;;;;5090519;28;20042;-79
2022/07/02 07:15:54;;;;;;;0.55;0.00;;;18.60;99.90;;;;;;5080146;28;20028;-76
2022/07/02 07:18:19;;;;;;;2.40;0.20;;;19.00;99.90;;;;;;5077574;28;20048;-76
2022/07/02 07:20:47;;;;;;;1.50;0.00;;;18.90;99.90;;;;;;5095853;28;20059;-76
2022/07/02 07:23:13;;;;;;;0.50;0.00;;;19.10;99.90;;;;;;5077643;28;20484;-76
2022/07/02 07:25:39;;;;;;;0.32;0.00;;;19.10;99.90;;;;;;5096186;28;20024;-77
2022/07/02 07:28:05;;;;;;;0.73;0.00;;;19.10;99.90;;;;;;5097229;28;20039;-76
2022/07/02 07:30:31;;;;;;;0.10;0.00;;;19.30;99.80;;;;;;5095530;28;20107;-76
2022/07/02 07:32:56;;;;;;;0.55;0.00;;;19.30;98.90;;;;;;5095561;28;20089;-77
2022/07/02 07:35:22;;;;;;;0.85;0.32;;;19.40;95.20;;;;;;5096592;28;20016;-76
2022/07/02 07:37:59;;;;;;;0.38;0.00;;;19.40;95.20;;;;;;5077918;28;20038;-77
2022/07/02 07:40:25;;;;;;;1.35;0.00;;;19.90;94.10;;;;;;5077902;28;20031;-77
2022/07/02 07:42:50;;;;;;;0.80;0.00;;;19.40;94.20;;;;;;5095883;28;20038;-76
2022/07/02 07:45:16;;;;;;;1.10;0.00;;;19.40;91.60;;;;;;5077089;28;20028;-76
2022/07/02 07:47:41;;;;;;;1.25;0.00;;;19.50;91.80;;;;;;5077281;28;20490;-77
2022/07/02 07:50:07;;;;;;;0.93;0.00;;;19.60;93.50;;;;;;5077145;28;20028;-77
2022/07/02 07:52:36;;;;;;;0.28;0.00;;;19.70;92.40;;;;;;5077020;28;20012;-77
2022/07/02 07:55:02;;;;;;;;;;;19.70;92.30;;;;;;5077981;28;20020;-76
2022/07/02 07:57:27;;;;;;;0.00;0.00;;;19.90;90.70;;;;;;5095423;28;19904;-77
2022/07/02 07:59:53;;;;;;;0.52;0.00;;;20.00;91.00;;;;;;5095022;28;20031;-77
2022/07/02 08:02:19;;;;;;;0.25;0.00;;;20.10;90.30;;;;;;5094311;28;20099;-76
2022/07/02 08:04:45;;;;;;;0.08;0.00;;;20.10;89.80;;;;;;5094910;28;20024;-77
2022/07/02 08:07:11;;;;;;;0.15;0.00;;;20.30;90.00;;;;;;5094894;28;20540;-77
2022/07/02 08:09:36;;;;;;;0.47;0.13;;;20.30;89.70;;;;;;5095429;28;20392;-77
2022/07/02 08:12:02;;;;;;;1.38;0.00;;;20.30;88.20;;;;;;5095088;28;20023;-77
2022/07/02 08:14:28;;;;;;;0.30;0.00;;;20.40;86.20;;;;;;5094992;28;20024;-77
2022/07/02 08:16:53;;;;;;;0.55;0.00;;;20.40;87.00;;;;;;5095176;28;20028;-77
2022/07/02 08:19:19;;;;;;;0.10;0.00;;;20.50;87.30;;;;;;5094613;28;20020;-77
2022/07/02 08:21:44;;;;;;;1.75;0.00;;;20.60;83.60;;;;;;5076522;28;20034;-77
2022/07/02 08:24:10;;;;;;;1.75;0.00;;;20.70;82.30;;;;;;5094831;28;20028;-77
2022/07/02 08:26:35;;;;;;;0.88;0.00;;;20.70;82.60;;;;;;5094745;28;20028;-77
2022/07/02 08:29:01;;;;;;;1.25;0.35;;;20.70;81.00;;;;;;5094365;28;20027;-76
2022/07/02 08:31:26;;;;;;;0.47;0.00;;;20.60;78.30;;;;;;5094996;28;20449;-77
2022/07/02 08:33:52;;;;;;;1.40;0.00;;;20.60;79.30;;;;;;5094353;28;20416;-76
2022/07/02 08:36:18;;;;;;;1.35;0.00;;;20.60;80.20;;;;;;5094661;28;20409;-76
2022/07/02 08:38:44;;;;;;;0.47;0.00;;;20.70;79.50;;;;;;5094433;28;20070;-76
2022/07/02 08:41:12;;;;;;;0.90;0.00;;;20.80;79.30;;;;;;5076138;28;20515;-76
2022/07/02 08:43:41;;;;;;;0.30;0.00;;;21.00;80.90;;;;;;5094286;28;20035;-76
2022/07/02 08:46:08;;;;;;;0.68;0.00;;;21.00;82.20;;;;;;5094216;28;20051;-76
2022/07/02 08:48:34;;;;;;;0.85;0.00;;;21.10;78.10;;;;;;5094076;28;20094;-75
2022/07/02 08:51:00;;;;;;;0.45;0.00;;;21.30;77.50;;;;;;5094620;28;20062;-75
2022/07/02 08:53:28;;;;;;;0.00;0.00;;;21.30;77.50;;;;;;5094352;28;20028;-75
2022/07/02 08:55:55;;;;;;;;;;;21.20;73.50;;;;;;5075856;28;20119;-75
2022/07/02 08:58:22;;;;;;;0.30;0.00;;;21.40;73.80;;;;;;5094161;28;20445;-75
2022/07/02 09:00:48;;;;;;;3.65;0.00;;;21.20;73.90;;;;;;5094873;28;20062;-78
2022/07/02 09:03:18;;;;;;;0.00;0.00;;;21.30;77.30;;;;;;5095275;28;20032;-77
2022/07/02 09:05:45;;;;;;;0.55;0.00;;;21.60;79.80;;;;;;5094312;28;20498;-77
2022/07/02 09:08:11;;;;;;;0.10;0.00;;;21.80;78.60;;;;;;5094420;28;20438;-77
2022/07/02 09:10:38;;;;;;;1.27;0.00;;;21.60;78.90;;;;;;5075796;28;20119;-77
2022/07/02 09:13:06;;;;;;;1.75;0.00;;;21.80;79.10;;;;;;5075611;28;20024;-77
2022/07/02 09:15:34;;;;;;;0.00;0.00;;;21.90;77.60;;;;;;5070957;28;20040;-77
2022/07/02 09:17:59;;;;;;;0.88;0.08;;;22.10;74.50;;;;;;5072875;28;20020;-77
2022/07/02 09:20:25;;;;;;;22.58;0.40;;;22.10;75.50;;;;;;5072365;28;20020;-77
2022/07/02 09:22:52;;;;;;;5.78;0.35;;;22.10;75.60;;;;;;5072267;28;20029;-77
2022/07/02 09:25:19;;;;;;;0.10;0.00;;;22.10;72.80;;;;;;5074123;28;20031;-79
2022/07/02 09:27:45;;;;;;;1.73;0.00;;;22.20;72.20;;;;;;5074150;28;20472;-76
2022/07/02 09:30:14;;;;;;;1.65;0.00;;;22.20;70.50;;;;;;5072137;28;20073;-77
2022/07/02 09:32:43;;;;;;;0.50;0.00;;;22.00;71.70;;;;;;5073848;28;20021;-78
2022/07/02 09:35:20;;;;;;;0.10;0.00;;;22.00;71.20;;;;;;5073797;28;20377;-78
2022/07/02 09:37:50;;;;;;;1.35;0.00;;;22.10;75.50;;;;;;5072202;28;20389;-78
2022/07/02 09:40:17;;;;;;;1.25;0.00;;;22.20;73.00;;;;;;5072211;28;20358;-78
2022/07/02 09:42:48;;;;;;;1.30;0.00;;;22.30;74.00;;;;;;5055907;28;20474;-78
2022/07/02 09:45:15;;;;;;;0.20;0.00;;;22.40;71.60;;;;;;5074138;28;20028;-78
2022/07/02 09:47:48;;;;;;;1.13;0.00;;;22.50;65.90;;;;;;5071998;28;20435;-78
2022/07/02 09:50:18;;;;;;;0.10;0.00;;;22.70;68.30;;;;;;5073695;28;20017;-78
2022/07/02 09:52:48;;;;;;;0.43;0.10;;;22.50;69.80;;;;;;5074013;28;20534;-78
2022/07/02 09:55:25;;;;;;;0.65;0.03;;;22.50;71.40;;;;;;5075284;28;20024;-77
2022/07/02 09:58:00;;;;;;;0.75;0.00;;;22.40;69.10;;;;;;5073551;28;20021;-78
2022/07/02 10:00:28;;;;;;;0.50;0.00;;;22.40;70.00;;;;;;5072560;28;20512;-77
2022/07/02 10:02:56;;;;;;;1.00;0.00;;;22.50;70.30;;;;;;5073797;28;20025;-77
2022/07/02 10:05:27;;;;;;;0.23;0.00;;;22.60;71.80;;;;;;5074592;28;20031;-78
2022/07/02 10:07:55;;;;;;;1.13;0.00;;;22.90;68.20;;;;;;5073952;28;20027;-78
2022/07/02 10:10:38;;;;;;;0.00;0.00;;;22.90;70.30;;;;;;5072674;28;20020;-78
2022/07/02 10:13:04;;;;;;;0.40;0.00;;;23.20;67.30;;;;;;5073922;28;20028;-78
2022/07/02 10:15:32;;;;;;;0.25;0.00;;;23.30;67.30;;;;;;5072708;28;20386;-78
2022/07/02 10:18:00;;;;;;;0.47;0.03;;;23.30;68.60;;;;;;5074485;28;20101;-78
2022/07/02 10:20:28;;;;;;;0.05;0.00;;;23.50;66.90;;;;;;5074265;28;20070;-78
2022/07/02 10:22:58;;;;;;;0.30;0.00;;;23.40;61.20;;;;;;5073831;28;20059;-78
2022/07/02 10:25:24;;;;;;;0.25;0.00;;;23.30;64.30;;;;;;5074019;28;20024;-78
2022/07/02 10:27:51;;;;;;;3.70;0.22;;;23.50;64.60;;;;;;5060080;28;20036;-78
2022/07/02 10:30:20;;;;;;;1.30;0.00;;;23.70;65.30;;;;;;5077982;28;20584;-78
2022/07/02 10:33:04;;;;;;;1.13;0.00;;;23.90;64.80;;;;;;5076992;28;20500;-78
2022/07/02 10:35:29;;;;;;;0.35;0.00;;;24.00;65.50;;;;;;5077100;28;20477;-78
2022/07/02 10:37:57;;;;;;;0.38;0.00;;;24.00;62.30;;;;;;5060358;28;20063;-78
2022/07/02 10:40:23;;;;;;;1.85;0.00;;;23.90;61.90;;;;;;5078670;28;20017;-78
2022/07/02 10:42:50;;;;;;;0.00;0.00;;;23.90;63.10;;;;;;5079826;28;20024;-78
2022/07/02 10:45:18;;;;;;;1.77;0.00;;;24.10;64.10;;;;;;5080219;28;20024;-78
2022/07/02 10:47:59;;;;;;;0.22;0.00;;;24.30;63.90;;;;;;5078868;28;20016;-78
2022/07/02 10:50:45;;;;;;;1.02;0.30;;;24.40;62.90;;;;;;5078597;28;20473;-78
2022/07/02 10:53:20;;;;;;;1.65;0.00;;;24.70;66.00;;;;;;5080252;28;20070;-78
2022/07/02 10:55:59;;;;;;;0.55;0.00;;;25.00;63.90;;;;;;5081184;28;20020;-78
2022/07/02 10:58:26;;;;;;;0.30;0.00;;;25.20;63.60;;;;;;5082221;28;20024;-78
2022/07/02 11:00:52;;;;;;;1.02;0.00;;;25.40;61.90;;;;;;5083786;28;20032;-78
2022/07/02 11:03:26;;;;;;;0.70;0.10;;;25.50;60.80;;;;;;5083289;28;20052;-78
2022/07/02 11:06:05;;;;;;;1.92;0.10;;;25.50;60.70;;;;;;5082268;28;20107;-78
2022/07/02 11:08:56;;;;;;;1.17;0.00;;;25.30;63.20;;;;;;5065436;28;20453;-78
2022/07/02 11:11:38;;;;;;;1.08;0.00;;;25.10;63.70;;;;;;5083103;28;20024;-78
2022/07/02 11:14:11;;;;;;;0.85;0.20;;;25.20;64.90;;;;;;5085072;28;20016;-78
2022/07/02 11:16:41;;;;;;;1.98;0.00;;;25.20;63.50;;;;;;5066682;28;20020;-78
2022/07/02 11:19:22;;;;;;;0.90;0.00;;;25.20;64.20;;;;;;5084598;28;20413;-78
2022/07/02 11:21:49;;;;;;;1.17;0.00;;;25.00;63.60;;;;;;5083166;28;20103;-78
2022/07/02 11:24:16;;;;;;;0.52;0.00;;;24.70;63.40;;;;;;5083267;28;20028;-78
2022/07/02 11:26:43;;;;;;;1.87;0.10;;;24.30;65.40;;;;;;5081056;28;20034;-78
2022/07/02 11:29:09;;;;;;;0.47;0.00;;;24.10;65.80;;;;;;5081611;28;20420;-79
2022/07/02 11:31:40;;;;;;;0.00;0.00;;;24.00;66.60;;;;;;5083224;28;20016;-79
2022/07/02 11:34:06;;;;;;;0.70;0.00;;;23.90;66.40;;;;;;5081273;28;20025;-79
2022/07/02 11:36:32;;;;;;;1.77;0.00;;;23.80;66.10;;;;;;5084177;28;20021;-79
2022/07/02 11:38:58;;;;;;;1.75;0.00;;;23.70;65.70;;;;;;5066366;28;20016;-79
2022/07/02 11:41:26;;;;;;;0.43;0.00;;;23.70;65.30;;;;;;5067052;28;20505;-79
2022/07/02 11:43:57;;;;;;;0.85;0.00;;;23.40;65.10;;;;;;5084086;28;20078;-78
2022/07/02 11:46:26;;;;;;;1.80;0.00;;;23.30;66.70;;;;;;5085602;28;20088;-79
2022/07/02 11:48:53;;;;;;;1.63;0.00;;;24.00;67.90;;;;;;5083660;28;20554;-78
2022/07/02 11:51:20;;;;;;;0.43;0.00;;;24.50;68.20;;;;;;5084693;28;20025;-78
2022/07/02 11:53:59;;;;;;;1.45;0.00;;;23.60;67.80;;;;;;5085053;28;20016;-79
2022/07/02 11:56:25;;;;;;;0.65;0.22;;;23.70;66.90;;;;;;5085065;28;20027;-78
2022/07/02 11:58:51;;;;;;;1.52;0.00;;;23.80;68.90;;;;;;5065088;28;20020;-79
2022/07/02 12:01:26;;;;;;;0.10;0.00;;;23.90;67.20;;;;;;5060177;28;20066;-79
2022/07/02 12:03:55;;;;;;;1.67;0.10;;;23.80;67.80;;;;;;5075481;28;20477;-79
2022/07/02 12:06:23;;;;;;;0.70;0.00;;;23.90;68.60;;;;;;5082066;28;20028;-78
2022/07/02 12:08:52;;;;;;;1.23;0.10;;;24.20;68.20;;;;;;5074857;28;20036;-78
2022/07/02 12:11:21;;;;;;;0.55;0.00;;;24.80;67.10;;;;;;5078576;28;20028;-79
2022/07/02 12:13:48;;;;;;;1.65;0.00;;;25.20;64.20;;;;;;5079569;28;20028;-78
2022/07/02 12:16:24;;;;;;;0.03;0.00;;;25.30;64.40;;;;;;5080016;28;20031;-78
2022/07/02 12:18:59;;;;;;;2.13;0.00;;;25.20;65.50;;;;;;5081270;28;20020;-78
2022/07/02 12:21:40;;;;;;;0.73;0.00;;;25.80;64.60;;;;;;5081994;28;20031;-79
2022/07/02 12:24:20;;;;;;;0.70;0.00;;;26.20;61.30;;;;;;5080410;28;20454;-78
2022/07/02 12:27:04;;;;;;;0.65;0.00;;;26.10;60.30;;;;;;5081141;28;20028;-78
2022/07/02 12:32:21;;;;;;;0.10;0.00;;;25.30;62.90;;;;;;5082403;28;20448;-78
2022/07/02 12:34:52;;;;;;;2.25;0.43;;;25.90;63.10;;;;;;5074673;28;20028;-78
2022/07/02 12:37:32;;;;;;;0.40;0.00;;;26.40;60.90;;;;;;5074523;28;20082;-77
2022/07/02 12:40:04;;;;;;;0.08;0.00;;;26.80;60.80;;;;;;5074213;28;20052;-77
2022/07/02 12:42:34;;;;;;;0.08;0.05;;;27.10;60.30;;;;;;5072812;28;20392;-77
2022/07/02 12:45:01;;;;;;;1.98;0.00;;;27.60;58.80;;;;;;5074093;28;20025;-77
2022/07/02 12:47:36;;;;;;;0.00;0.00;;;27.90;58.40;;;;;;5073982;28;20531;-77
2022/07/02 12:50:15;;;;;;;0.10;0.10;;;27.80;57.50;;;;;;5073940;28;20481;-77
2022/07/02 12:53:16;;;;;;;5.40;0.00;;;27.60;58.50;;;;;;5074074;28;20499;-77
2022/07/02 12:55:44;;;;;;;1.45;0.00;;;27.50;55.80;;;;;;5073420;28;20044;-77
2022/07/02 12:58:12;;;;;;;1.73;0.00;;;27.30;56.30;;;;;;5073925;28;20016;-77
2022/07/02 13:00:40;;;;;;;0.00;0.00;;;27.00;54.90;;;;;;5073109;28;20110;-77